PWSweather.com
Personal Weather Stations
Station Observations
KD5HIA
2606 Webster St., San Angelo, TX 76901

2606 Webster St.San Angelo, TX 76901

Lat: 31.46, Lon: -100.48

Elevation: 1912

Station Type:

http://weather.divergentsystems.net/

High Low Average
Temperature 79.4°F26.3°C 53.4°F11.9°C 64.3°F17.9°C
Dew Point 59.9°F15.5°C 51.9°F11.1°C 55.6°F13.1°C
Winds 6.0 mph 9.7 kmh Calm Calm 1.0 mph SSW1.6 kmh SSW
Wind Gusts 7.0 mph11.3 kmh 7.0 mph11.3 kmh 7.0 mph11.3 kmh
Humidity 97% 41% 78%
Pressure 29.95 in1014.2 mb 29.82 in1009.8 mb -
Precipitation 0.00 in0.0 mm - -
Hour Temp Dew Point Humidity Winds Wind Gusts Pressure Precip Precip Rate Daily Precip Total
12:00 AM 59.0°F15.0°C 57.0°F13.9°C 93% Calm Calm 7.0 mph11.3 kmh 29.83 in1010.2 mb 0.00 in0.0 mm 0.00 in/hr0.0 mm/hr 0.00 in0.0 mm
12:05 AM 58.8°F14.9°C 56.8°F13.8°C 93% Calm Calm 7.0 mph11.3 kmh 29.82 in1009.8 mb 0.00 in0.0 mm 0.00 in/hr0.0 mm/hr 0.00 in0.0 mm
12:10 AM 58.7°F14.8°C 56.7°F13.7°C 93% Calm Calm 7.0 mph11.3 kmh 29.82 in1009.8 mb 0.00 in0.0 mm 0.00 in/hr0.0 mm/hr 0.00 in0.0 mm
12:15 AM 58.6°F14.8°C 56.6°F13.7°C 93% Calm Calm 7.0 mph11.3 kmh 29.83 in1010.2 mb 0.00 in0.0 mm 0.00 in/hr0.0 mm/hr 0.00 in0.0 mm
12:20 AM 58.4°F14.7°C 56.4°F13.6°C 93% Calm Calm 7.0 mph11.3 kmh 29.83 in1010.2 mb 0.00 in0.0 mm 0.00 in/hr0.0 mm/hr 0.00 in0.0 mm
12:25 AM 58.4°F14.7°C 56.7°F13.7°C 94% 1.0 mph SE1.6 kmh SE 7.0 mph11.3 kmh 29.83 in1010.2 mb 0.00 in0.0 mm 0.00 in/hr0.0 mm/hr 0.00 in0.0 mm
12:30 AM 58.4°F14.7°C 56.7°F13.7°C 94% Calm Calm 7.0 mph11.3 kmh 29.83 in1010.2 mb 0.00 in0.0 mm 0.00 in/hr0.0 mm/hr 0.00 in0.0 mm
12:35 AM 58.4°F14.7°C 56.7°F13.7°C 94% Calm Calm 7.0 mph11.3 kmh 29.83 in1010.2 mb 0.00 in0.0 mm 0.00 in/hr0.0 mm/hr 0.00 in0.0 mm
12:40 AM 58.3°F14.6°C 56.6°F13.7°C 94% Calm Calm 7.0 mph11.3 kmh 29.83 in1010.2 mb 0.00 in0.0 mm 0.00 in/hr0.0 mm/hr 0.00 in0.0 mm
12:45 AM 58.2°F14.6°C 56.5°F13.6°C 94% 2.0 mph SE3.2 kmh SE 7.0 mph11.3 kmh 29.82 in1009.8 mb 0.00 in0.0 mm 0.00 in/hr0.0 mm/hr 0.00 in0.0 mm
12:50 AM 58.3°F14.6°C 56.9°F13.8°C 95% 2.0 mph SE3.2 kmh SE 7.0 mph11.3 kmh 29.82 in1009.8 mb 0.00 in0.0 mm 0.00 in/hr0.0 mm/hr 0.00 in0.0 mm
12:55 AM 58.4°F14.7°C 57.0°F13.9°C 95% Calm Calm 7.0 mph11.3 kmh 29.82 in1009.8 mb 0.00 in0.0 mm 0.00 in/hr0.0 mm/hr 0.00 in0.0 mm
01:00 AM 58.3°F14.6°C 56.9°F13.8°C 95% 1.0 mph SE1.6 kmh SE 7.0 mph11.3 kmh 29.82 in1009.8 mb 0.00 in0.0 mm 0.00 in/hr0.0 mm/hr 0.00 in0.0 mm
01:05 AM 58.4°F14.7°C 57.0°F13.9°C 95% 1.0 mph SE1.6 kmh SE 7.0 mph11.3 kmh 29.84 in1010.5 mb 0.00 in0.0 mm 0.00 in/hr0.0 mm/hr 0.00 in0.0 mm
01:10 AM 58.4°F14.7°C 57.0°F13.9°C 95% 2.0 mph S3.2 kmh S 7.0 mph11.3 kmh 29.84 in1010.5 mb 0.00 in0.0 mm 0.00 in/hr0.0 mm/hr 0.00 in0.0 mm
01:15 AM 58.4°F14.7°C 57.0°F13.9°C 95% Calm Calm 7.0 mph11.3 kmh 29.84 in1010.5 mb 0.00 in0.0 mm 0.00 in/hr0.0 mm/hr 0.00 in0.0 mm
01:20 AM 58.5°F14.7°C 57.1°F13.9°C 95% 5.0 mph S8.0 kmh S 7.0 mph11.3 kmh 29.84 in1010.5 mb 0.00 in0.0 mm 0.00 in/hr0.0 mm/hr 0.00 in0.0 mm
01:25 AM 58.5°F14.7°C 57.1°F13.9°C 95% Calm Calm 7.0 mph11.3 kmh 29.84 in1010.5 mb 0.00 in0.0 mm 0.00 in/hr0.0 mm/hr 0.00 in0.0 mm
01:30 AM 58.5°F14.7°C 57.1°F13.9°C 95% Calm Calm 7.0 mph11.3 kmh 29.83 in1010.2 mb 0.00 in0.0 mm 0.00 in/hr0.0 mm/hr 0.00 in0.0 mm
01:35 AM 58.5°F14.7°C 57.1°F13.9°C 95% 2.0 mph SE3.2 kmh SE 7.0 mph11.3 kmh 29.83 in1010.2 mb 0.00 in0.0 mm 0.00 in/hr0.0 mm/hr 0.00 in0.0 mm
01:40 AM 58.4°F14.7°C 57.0°F13.9°C 95% 2.0 mph SE3.2 kmh SE 7.0 mph11.3 kmh 29.83 in1010.2 mb 0.00 in0.0 mm 0.00 in/hr0.0 mm/hr 0.00 in0.0 mm
01:45 AM 58.4°F14.7°C 57.0°F13.9°C 95% 1.0 mph SE1.6 kmh SE 7.0 mph11.3 kmh 29.83 in1010.2 mb 0.00 in0.0 mm 0.00 in/hr0.0 mm/hr 0.00 in0.0 mm
01:50 AM 58.4°F14.7°C 57.0°F13.9°C 95% 1.0 mph SE1.6 kmh SE 7.0 mph11.3 kmh 29.83 in1010.2 mb 0.00 in0.0 mm 0.00 in/hr0.0 mm/hr 0.00 in0.0 mm
01:55 AM 58.4°F14.7°C 57.0°F13.9°C 95% 2.0 mph SE3.2 kmh SE 7.0 mph11.3 kmh 29.83 in1010.2 mb 0.00 in0.0 mm 0.00 in/hr0.0 mm/hr 0.00 in0.0 mm
02:00 AM 58.4°F14.7°C 57.0°F13.9°C 95% 3.0 mph SE4.8 kmh SE 7.0 mph11.3 kmh 29.83 in1010.2 mb 0.00 in0.0 mm 0.00 in/hr0.0 mm/hr 0.00 in0.0 mm
02:05 AM 58.4°F14.7°C 57.0°F13.9°C 95% 1.0 mph SE1.6 kmh SE 7.0 mph11.3 kmh 29.83 in1010.2 mb 0.00 in0.0 mm 0.00 in/hr0.0 mm/hr 0.00 in0.0 mm
02:10 AM 58.4°F14.7°C 57.3°F14.1°C 96% 1.0 mph SE1.6 kmh SE 7.0 mph11.3 kmh 29.83 in1010.2 mb 0.00 in0.0 mm 0.00 in/hr0.0 mm/hr 0.00 in0.0 mm
02:15 AM 58.4°F14.7°C 57.3°F14.1°C 96% Calm Calm 7.0 mph11.3 kmh 29.83 in1010.2 mb 0.00 in0.0 mm 0.00 in/hr0.0 mm/hr 0.00 in0.0 mm
02:20 AM 58.4°F14.7°C 57.0°F13.9°C 95% Calm Calm 7.0 mph11.3 kmh 29.84 in1010.5 mb 0.00 in0.0 mm 0.00 in/hr0.0 mm/hr 0.00 in0.0 mm
02:25 AM 58.4°F14.7°C 57.0°F13.9°C 95% Calm Calm 7.0 mph11.3 kmh 29.84 in1010.5 mb 0.00 in0.0 mm 0.00 in/hr0.0 mm/hr 0.00 in0.0 mm
02:30 AM 58.4°F14.7°C 57.0°F13.9°C 95% 1.0 mph SE1.6 kmh SE 7.0 mph11.3 kmh 29.84 in1010.5 mb 0.00 in0.0 mm 0.00 in/hr0.0 mm/hr 0.00 in0.0 mm
02:35 AM 58.4°F14.7°C 57.0°F13.9°C 95% 2.0 mph SE3.2 kmh SE 7.0 mph11.3 kmh 29.83 in1010.2 mb 0.00 in0.0 mm 0.00 in/hr0.0 mm/hr 0.00 in0.0 mm
02:40 AM 58.4°F14.7°C 57.0°F13.9°C 95% Calm Calm 7.0 mph11.3 kmh 29.84 in1010.5 mb 0.00 in0.0 mm 0.00 in/hr0.0 mm/hr 0.00 in0.0 mm
02:45 AM 58.4°F14.7°C 57.3°F14.1°C 96% 1.0 mph SE1.6 kmh SE 7.0 mph11.3 kmh 29.83 in1010.2 mb 0.00 in0.0 mm 0.00 in/hr0.0 mm/hr 0.00 in0.0 mm
02:50 AM 58.4°F14.7°C 57.3°F14.1°C 96% Calm Calm 7.0 mph11.3 kmh 29.83 in1010.2 mb 0.00 in0.0 mm 0.00 in/hr0.0 mm/hr 0.00 in0.0 mm
02:55 AM 58.4°F14.7°C 57.3°F14.1°C 96% Calm Calm 7.0 mph11.3 kmh 29.83 in1010.2 mb 0.00 in0.0 mm 0.00 in/hr0.0 mm/hr 0.00 in0.0 mm
03:00 AM 58.3°F14.6°C 57.2°F14.0°C 96% Calm Calm 7.0 mph11.3 kmh 29.83 in1010.2 mb 0.00 in0.0 mm 0.00 in/hr0.0 mm/hr 0.00 in0.0 mm
03:05 AM 58.4°F14.7°C 57.3°F14.1°C 96% Calm Calm 7.0 mph11.3 kmh 29.82 in1009.8 mb 0.00 in0.0 mm 0.00 in/hr0.0 mm/hr 0.00 in0.0 mm
03:10 AM 58.3°F14.6°C 57.2°F14.0°C 96% Calm Calm 7.0 mph11.3 kmh 29.82 in1009.8 mb 0.00 in0.0 mm 0.00 in/hr0.0 mm/hr 0.00 in0.0 mm
03:15 AM 58.1°F14.5°C 56.7°F13.7°C 95% 1.0 mph SE1.6 kmh SE 7.0 mph11.3 kmh 29.82 in1009.8 mb 0.00 in0.0 mm 0.00 in/hr0.0 mm/hr 0.00 in0.0 mm
03:20 AM 57.8°F14.3°C 56.4°F13.6°C 95% Calm Calm 7.0 mph11.3 kmh 29.83 in1010.2 mb 0.00 in0.0 mm 0.00 in/hr0.0 mm/hr 0.00 in0.0 mm
03:25 AM 57.4°F14.1°C 56.0°F13.3°C 95% Calm Calm 7.0 mph11.3 kmh 29.82 in1009.8 mb 0.00 in0.0 mm 0.00 in/hr0.0 mm/hr 0.00 in0.0 mm
03:30 AM 57.0°F13.9°C 55.6°F13.1°C 95% Calm Calm 7.0 mph11.3 kmh 29.82 in1009.8 mb 0.00 in0.0 mm 0.00 in/hr0.0 mm/hr 0.00 in0.0 mm
03:35 AM 56.7°F13.7°C 55.3°F12.9°C 95% Calm Calm 7.0 mph11.3 kmh 29.82 in1009.8 mb 0.00 in0.0 mm 0.00 in/hr0.0 mm/hr 0.00 in0.0 mm
03:40 AM 56.4°F13.6°C 55.0°F12.8°C 95% Calm Calm 7.0 mph11.3 kmh 29.82 in1009.8 mb 0.00 in0.0 mm 0.00 in/hr0.0 mm/hr 0.00 in0.0 mm
03:45 AM 56.3°F13.5°C 54.9°F12.7°C 95% Calm Calm 7.0 mph11.3 kmh 29.82 in1009.8 mb 0.00 in0.0 mm 0.00 in/hr0.0 mm/hr 0.00 in0.0 mm
03:50 AM 56.1°F13.4°C 54.7°F12.6°C 95% 1.0 mph SE1.6 kmh SE 7.0 mph11.3 kmh 29.82 in1009.8 mb 0.00 in0.0 mm 0.00 in/hr0.0 mm/hr 0.00 in0.0 mm
03:55 AM 55.9°F13.3°C 54.2°F12.3°C 94% Calm Calm 7.0 mph11.3 kmh 29.82 in1009.8 mb 0.00 in0.0 mm 0.00 in/hr0.0 mm/hr 0.00 in0.0 mm
04:00 AM 55.7°F13.2°C 54.0°F12.2°C 94% Calm Calm 7.0 mph11.3 kmh 29.82 in1009.8 mb 0.00 in0.0 mm 0.00 in/hr0.0 mm/hr 0.00 in0.0 mm
04:05 AM 55.5°F13.1°C 53.8°F12.1°C 94% Calm Calm 7.0 mph11.3 kmh 29.83 in1010.2 mb 0.00 in0.0 mm 0.00 in/hr0.0 mm/hr 0.00 in0.0 mm
04:10 AM 55.4°F13.0°C 53.7°F12.1°C 94% Calm Calm 7.0 mph11.3 kmh 29.82 in1009.8 mb 0.00 in0.0 mm 0.00 in/hr0.0 mm/hr 0.00 in0.0 mm
04:15 AM 55.3°F12.9°C 53.6°F12.0°C 94% Calm Calm 7.0 mph11.3 kmh 29.82 in1009.8 mb 0.00 in0.0 mm 0.00 in/hr0.0 mm/hr 0.00 in0.0 mm
04:20 AM 55.2°F12.9°C 53.5°F11.9°C 94% 2.0 mph SE3.2 kmh SE 7.0 mph11.3 kmh 29.82 in1009.8 mb 0.00 in0.0 mm 0.00 in/hr0.0 mm/hr 0.00 in0.0 mm
04:25 AM 55.1°F12.8°C 53.4°F11.9°C 94% Calm Calm 7.0 mph11.3 kmh 29.82 in1009.8 mb 0.00 in0.0 mm 0.00 in/hr0.0 mm/hr 0.00 in0.0 mm
04:30 AM 55.0°F12.8°C 53.3°F11.8°C 94% Calm Calm 7.0 mph11.3 kmh 29.82 in1009.8 mb 0.00 in0.0 mm 0.00 in/hr0.0 mm/hr 0.00 in0.0 mm
04:35 AM 54.9°F12.7°C 53.2°F11.8°C 94% Calm Calm 7.0 mph11.3 kmh 29.82 in1009.8 mb 0.00 in0.0 mm 0.00 in/hr0.0 mm/hr 0.00 in0.0 mm
04:40 AM 54.9°F12.7°C 53.2°F11.8°C 94% Calm Calm 7.0 mph11.3 kmh 29.82 in1009.8 mb 0.00 in0.0 mm 0.00 in/hr0.0 mm/hr 0.00 in0.0 mm
04:45 AM 54.9°F12.7°C 53.2°F11.8°C 94% Calm Calm 7.0 mph11.3 kmh 29.82 in1009.8 mb 0.00 in0.0 mm 0.00 in/hr0.0 mm/hr 0.00 in0.0 mm
04:50 AM 54.8°F12.7°C 53.1°F11.7°C 94% Calm Calm 7.0 mph11.3 kmh 29.82 in1009.8 mb 0.00 in0.0 mm 0.00 in/hr0.0 mm/hr 0.00 in0.0 mm
04:55 AM 54.7°F12.6°C 53.0°F11.7°C 94% 1.0 mph SE1.6 kmh SE 7.0 mph11.3 kmh 29.82 in1009.8 mb 0.00 in0.0 mm 0.00 in/hr0.0 mm/hr 0.00 in0.0 mm
05:00 AM 54.6°F12.6°C 52.9°F11.6°C 94% Calm Calm 7.0 mph11.3 kmh 29.82 in1009.8 mb 0.00 in0.0 mm 0.00 in/hr0.0 mm/hr 0.00 in0.0 mm
05:05 AM 54.5°F12.5°C 52.8°F11.6°C 94% Calm Calm 7.0 mph11.3 kmh 29.83 in1010.2 mb 0.00 in0.0 mm 0.00 in/hr0.0 mm/hr 0.00 in0.0 mm
05:10 AM 54.4°F12.4°C 52.7°F11.5°C 94% Calm Calm 7.0 mph11.3 kmh 29.83 in1010.2 mb 0.00 in0.0 mm 0.00 in/hr0.0 mm/hr 0.00 in0.0 mm
05:15 AM 54.3°F12.4°C 52.6°F11.4°C 94% Calm Calm 7.0 mph11.3 kmh 29.83 in1010.2 mb 0.00 in0.0 mm 0.00 in/hr0.0 mm/hr 0.00 in0.0 mm
05:20 AM 54.3°F12.4°C 52.6°F11.4°C 94% Calm Calm 7.0 mph11.3 kmh 29.83 in1010.2 mb 0.00 in0.0 mm 0.00 in/hr0.0 mm/hr 0.00 in0.0 mm
05:25 AM 54.2°F12.3°C 52.5°F11.4°C 94% Calm Calm 7.0 mph11.3 kmh 29.83 in1010.2 mb 0.00 in0.0 mm 0.00 in/hr0.0 mm/hr 0.00 in0.0 mm
05:30 AM 54.0°F12.2°C 52.3°F11.3°C 94% Calm Calm 7.0 mph11.3 kmh 29.83 in1010.2 mb 0.00 in0.0 mm 0.00 in/hr0.0 mm/hr 0.00 in0.0 mm
05:35 AM 54.0°F12.2°C 52.3°F11.3°C 94% Calm Calm 7.0 mph11.3 kmh 29.83 in1010.2 mb 0.00 in0.0 mm 0.00 in/hr0.0 mm/hr 0.00 in0.0 mm
05:40 AM 53.8°F12.1°C 52.1°F11.2°C 94% Calm Calm 7.0 mph11.3 kmh 29.84 in1010.5 mb 0.00 in0.0 mm 0.00 in/hr0.0 mm/hr 0.00 in0.0 mm
05:45 AM 53.7°F12.1°C 52.0°F11.1°C 94% Calm Calm 7.0 mph11.3 kmh 29.84 in1010.5 mb 0.00 in0.0 mm 0.00 in/hr0.0 mm/hr 0.00 in0.0 mm
05:50 AM 53.6°F12.0°C 51.9°F11.1°C 94% Calm Calm 7.0 mph11.3 kmh 29.84 in1010.5 mb 0.00 in0.0 mm 0.00 in/hr0.0 mm/hr 0.00 in0.0 mm
05:55 AM 53.6°F12.0°C 51.9°F11.1°C 94% Calm Calm 7.0 mph11.3 kmh 29.83 in1010.2 mb 0.00 in0.0 mm 0.00 in/hr0.0 mm/hr 0.00 in0.0 mm
06:00 AM 53.5°F11.9°C 52.1°F11.2°C 95% Calm Calm 7.0 mph11.3 kmh 29.84 in1010.5 mb 0.00 in0.0 mm 0.00 in/hr0.0 mm/hr 0.00 in0.0 mm
06:05 AM 53.5°F11.9°C 52.1°F11.2°C 95% Calm Calm 7.0 mph11.3 kmh 29.83 in1010.2 mb 0.00 in0.0 mm 0.00 in/hr0.0 mm/hr 0.00 in0.0 mm
06:10 AM 53.5°F11.9°C 52.1°F11.2°C 95% Calm Calm 7.0 mph11.3 kmh 29.83 in1010.2 mb 0.00 in0.0 mm 0.00 in/hr0.0 mm/hr 0.00 in0.0 mm
06:15 AM 53.4°F11.9°C 52.0°F11.1°C 95% Calm Calm 7.0 mph11.3 kmh 29.84 in1010.5 mb 0.00 in0.0 mm 0.00 in/hr0.0 mm/hr 0.00 in0.0 mm
06:20 AM 53.5°F11.9°C 52.1°F11.2°C 95% Calm Calm 7.0 mph11.3 kmh 29.84 in1010.5 mb 0.00 in0.0 mm 0.00 in/hr0.0 mm/hr 0.00 in0.0 mm
06:25 AM 53.5°F11.9°C 52.1°F11.2°C 95% Calm Calm 7.0 mph11.3 kmh 29.84 in1010.5 mb 0.00 in0.0 mm 0.00 in/hr0.0 mm/hr 0.00 in0.0 mm
06:30 AM 53.6°F12.0°C 52.2°F11.2°C 95% Calm Calm 7.0 mph11.3 kmh 29.84 in1010.5 mb 0.00 in0.0 mm 0.00 in/hr0.0 mm/hr 0.00 in0.0 mm
06:35 AM 53.8°F12.1°C 52.4°F11.3°C 95% 1.0 mph SE1.6 kmh SE 7.0 mph11.3 kmh 29.85 in1010.8 mb 0.00 in0.0 mm 0.00 in/hr0.0 mm/hr 0.00 in0.0 mm
06:40 AM 54.1°F12.3°C 53.0°F11.7°C 96% Calm Calm 7.0 mph11.3 kmh 29.85 in1010.8 mb 0.00 in0.0 mm 0.00 in/hr0.0 mm/hr 0.00 in0.0 mm
06:45 AM 54.2°F12.3°C 53.1°F11.7°C 96% Calm Calm 7.0 mph11.3 kmh 29.85 in1010.8 mb 0.00 in0.0 mm 0.00 in/hr0.0 mm/hr 0.00 in0.0 mm
06:50 AM 54.4°F12.4°C 53.3°F11.8°C 96% Calm Calm 7.0 mph11.3 kmh 29.86 in1011.2 mb 0.00 in0.0 mm 0.00 in/hr0.0 mm/hr 0.00 in0.0 mm
06:55 AM 54.6°F12.6°C 53.5°F11.9°C 96% Calm Calm 7.0 mph11.3 kmh 29.86 in1011.2 mb 0.00 in0.0 mm 0.00 in/hr0.0 mm/hr 0.00 in0.0 mm
07:00 AM 54.8°F12.7°C 53.7°F12.1°C 96% Calm Calm 7.0 mph11.3 kmh 29.86 in1011.2 mb 0.00 in0.0 mm 0.00 in/hr0.0 mm/hr 0.00 in0.0 mm
07:05 AM 55.1°F12.8°C 54.0°F12.2°C 96% Calm Calm 7.0 mph11.3 kmh 29.86 in1011.2 mb 0.00 in0.0 mm 0.00 in/hr0.0 mm/hr 0.00 in0.0 mm
07:10 AM 55.2°F12.9°C 54.1°F12.3°C 96% Calm Calm 7.0 mph11.3 kmh 29.86 in1011.2 mb 0.00 in0.0 mm 0.00 in/hr0.0 mm/hr 0.00 in0.0 mm
07:15 AM 55.4°F13.0°C 54.3°F12.4°C 96% Calm Calm 7.0 mph11.3 kmh 29.87 in1011.5 mb 0.00 in0.0 mm 0.00 in/hr0.0 mm/hr 0.00 in0.0 mm
07:20 AM 55.5°F13.1°C 54.4°F12.4°C 96% Calm Calm 7.0 mph11.3 kmh 29.87 in1011.5 mb 0.00 in0.0 mm 0.00 in/hr0.0 mm/hr 0.00 in0.0 mm
07:25 AM 55.7°F13.2°C 54.6°F12.6°C 96% Calm Calm 7.0 mph11.3 kmh 29.87 in1011.5 mb 0.00 in0.0 mm 0.00 in/hr0.0 mm/hr 0.00 in0.0 mm
07:30 AM 55.9°F13.3°C 54.8°F12.7°C 96% Calm Calm 7.0 mph11.3 kmh 29.88 in1011.9 mb 0.00 in0.0 mm 0.00 in/hr0.0 mm/hr 0.00 in0.0 mm
07:35 AM 56.2°F13.4°C 55.4°F13.0°C 97% 1.0 mph SE1.6 kmh SE 7.0 mph11.3 kmh 29.88 in1011.9 mb 0.00 in0.0 mm 0.00 in/hr0.0 mm/hr 0.00 in0.0 mm
07:40 AM 56.4°F13.6°C 55.6°F13.1°C 97% Calm Calm 7.0 mph11.3 kmh 29.88 in1011.9 mb 0.00 in0.0 mm 0.00 in/hr0.0 mm/hr 0.00 in0.0 mm
07:45 AM 56.6°F13.7°C 55.5°F13.1°C 96% 2.0 mph SE3.2 kmh SE 7.0 mph11.3 kmh 29.89 in1012.2 mb 0.00 in0.0 mm 0.00 in/hr0.0 mm/hr 0.00 in0.0 mm
07:50 AM 56.8°F13.8°C 56.0°F13.3°C 97% 2.0 mph SE3.2 kmh SE 7.0 mph11.3 kmh 29.89 in1012.2 mb 0.00 in0.0 mm 0.00 in/hr0.0 mm/hr 0.00 in0.0 mm
07:55 AM 56.9°F13.8°C 56.1°F13.4°C 97% Calm Calm 7.0 mph11.3 kmh 29.90 in1012.5 mb 0.00 in0.0 mm 0.00 in/hr0.0 mm/hr 0.00 in0.0 mm
08:00 AM 56.9°F13.8°C 56.1°F13.4°C 97% Calm Calm 7.0 mph11.3 kmh 29.90 in1012.5 mb 0.00 in0.0 mm 0.00 in/hr0.0 mm/hr 0.00 in0.0 mm
08:05 AM 57.0°F13.9°C 56.2°F13.4°C 97% Calm Calm 7.0 mph11.3 kmh 29.90 in1012.5 mb 0.00 in0.0 mm 0.00 in/hr0.0 mm/hr 0.00 in0.0 mm
08:10 AM 57.1°F13.9°C 56.3°F13.5°C 97% Calm Calm 7.0 mph11.3 kmh 29.90 in1012.5 mb 0.00 in0.0 mm 0.00 in/hr0.0 mm/hr 0.00 in0.0 mm
08:15 AM 57.1°F13.9°C 56.3°F13.5°C 97% Calm Calm 7.0 mph11.3 kmh 29.90 in1012.5 mb 0.00 in0.0 mm 0.00 in/hr0.0 mm/hr 0.00 in0.0 mm
08:20 AM 57.0°F13.9°C 56.2°F13.4°C 97% Calm Calm 7.0 mph11.3 kmh 29.91 in1012.9 mb 0.00 in0.0 mm 0.00 in/hr0.0 mm/hr 0.00 in0.0 mm
08:25 AM 57.0°F13.9°C 56.2°F13.4°C 97% Calm Calm 7.0 mph11.3 kmh 29.91 in1012.9 mb 0.00 in0.0 mm 0.00 in/hr0.0 mm/hr 0.00 in0.0 mm
08:30 AM 57.0°F13.9°C 56.2°F13.4°C 97% Calm Calm 7.0 mph11.3 kmh 29.91 in1012.9 mb 0.00 in0.0 mm 0.00 in/hr0.0 mm/hr 0.00 in0.0 mm
08:35 AM 57.0°F13.9°C 56.2°F13.4°C 97% Calm Calm 7.0 mph11.3 kmh 29.92 in1013.2 mb 0.00 in0.0 mm 0.00 in/hr0.0 mm/hr 0.00 in0.0 mm
08:40 AM 57.0°F13.9°C 56.2°F13.4°C 97% Calm Calm 7.0 mph11.3 kmh 29.92 in1013.2 mb 0.00 in0.0 mm 0.00 in/hr0.0 mm/hr 0.00 in0.0 mm
08:45 AM 57.1°F13.9°C 56.3°F13.5°C 97% Calm Calm 7.0 mph11.3 kmh 29.92 in1013.2 mb 0.00 in0.0 mm 0.00 in/hr0.0 mm/hr 0.00 in0.0 mm
08:50 AM 57.2°F14.0°C 56.4°F13.6°C 97% Calm Calm 7.0 mph11.3 kmh 29.92 in1013.2 mb 0.01 in0.3 mm 0.12 in/hr3.0 mm/hr 0.01 in0.3 mm
08:55 AM 57.2°F14.0°C 56.4°F13.6°C 97% Calm Calm 7.0 mph11.3 kmh 29.92 in1013.2 mb 0.01 in0.3 mm 0.00 in/hr0.0 mm/hr 0.01 in0.3 mm
09:00 AM 57.1°F13.9°C 56.3°F13.5°C 97% Calm Calm 7.0 mph11.3 kmh 29.92 in1013.2 mb 0.01 in0.3 mm 0.00 in/hr0.0 mm/hr 0.01 in0.3 mm
09:05 AM 57.0°F13.9°C 56.2°F13.4°C 97% 1.0 mph SE1.6 kmh SE 7.0 mph11.3 kmh 29.92 in1013.2 mb 0.01 in0.3 mm 0.00 in/hr0.0 mm/hr 0.01 in0.3 mm
09:10 AM 56.9°F13.8°C 56.1°F13.4°C 97% Calm Calm 7.0 mph11.3 kmh 29.93 in1013.5 mb 0.01 in0.3 mm 0.00 in/hr0.0 mm/hr 0.01 in0.3 mm
09:15 AM 57.0°F13.9°C 56.2°F13.4°C 97% 1.0 mph SW1.6 kmh SW 7.0 mph11.3 kmh 29.93 in1013.5 mb 0.01 in0.3 mm 0.00 in/hr0.0 mm/hr 0.01 in0.3 mm
09:20 AM 57.0°F13.9°C 56.2°F13.4°C 97% 4.0 mph SW6.4 kmh SW 7.0 mph11.3 kmh 29.93 in1013.5 mb 0.01 in0.3 mm 0.00 in/hr0.0 mm/hr 0.01 in0.3 mm
09:25 AM 57.0°F13.9°C 56.2°F13.4°C 97% 5.0 mph SW8.0 kmh SW 7.0 mph11.3 kmh 29.93 in1013.5 mb 0.01 in0.3 mm 0.00 in/hr0.0 mm/hr 0.01 in0.3 mm
09:30 AM 56.9°F13.8°C 56.1°F13.4°C 97% 1.0 mph SSW1.6 kmh SSW 7.0 mph11.3 kmh 29.93 in1013.5 mb 0.01 in0.3 mm 0.00 in/hr0.0 mm/hr 0.01 in0.3 mm
09:35 AM 56.9°F13.8°C 56.1°F13.4°C 97% 3.0 mph SSW4.8 kmh SSW 7.0 mph11.3 kmh 29.93 in1013.5 mb 0.01 in0.3 mm 0.00 in/hr0.0 mm/hr 0.01 in0.3 mm
09:40 AM 56.9°F13.8°C 56.1°F13.4°C 97% Calm Calm 7.0 mph11.3 kmh 29.93 in1013.5 mb 0.01 in0.3 mm 0.00 in/hr0.0 mm/hr 0.01 in0.3 mm
09:45 AM 56.8°F13.8°C 55.7°F13.2°C 96% 2.0 mph S3.2 kmh S 7.0 mph11.3 kmh 29.93 in1013.5 mb 0.01 in0.3 mm 0.00 in/hr0.0 mm/hr 0.01 in0.3 mm
09:50 AM 56.8°F13.8°C 55.7°F13.2°C 96% Calm Calm 7.0 mph11.3 kmh 29.93 in1013.5 mb 0.01 in0.3 mm 0.00 in/hr0.0 mm/hr 0.01 in0.3 mm
09:55 AM 56.9°F13.8°C 55.8°F13.2°C 96% 3.0 mph SSW4.8 kmh SSW 7.0 mph11.3 kmh 29.94 in1013.9 mb 0.00 in0.0 mm 0.00 in/hr0.0 mm/hr 0.01 in0.3 mm
10:00 AM 56.9°F13.8°C 55.8°F13.2°C 96% Calm Calm 7.0 mph11.3 kmh 29.94 in1013.9 mb 0.00 in0.0 mm 0.00 in/hr0.0 mm/hr 0.01 in0.3 mm
10:05 AM 56.9°F13.8°C 55.8°F13.2°C 96% 2.0 mph SW3.2 kmh SW 7.0 mph11.3 kmh 29.94 in1013.9 mb 0.00 in0.0 mm 0.00 in/hr0.0 mm/hr 0.01 in0.3 mm
10:10 AM 57.0°F13.9°C 55.9°F13.3°C 96% Calm Calm 7.0 mph11.3 kmh 29.94 in1013.9 mb 0.00 in0.0 mm 0.00 in/hr0.0 mm/hr 0.01 in0.3 mm
10:15 AM 57.2°F14.0°C 56.1°F13.4°C 96% 3.0 mph SW4.8 kmh SW 7.0 mph11.3 kmh 29.94 in1013.9 mb 0.00 in0.0 mm 0.00 in/hr0.0 mm/hr 0.01 in0.3 mm
10:20 AM 57.4°F14.1°C 56.3°F13.5°C 96% Calm Calm 7.0 mph11.3 kmh 29.94 in1013.9 mb 0.00 in0.0 mm 0.00 in/hr0.0 mm/hr 0.01 in0.3 mm
10:25 AM 57.7°F14.3°C 56.6°F13.7°C 96% 3.0 mph SW4.8 kmh SW 7.0 mph11.3 kmh 29.94 in1013.9 mb 0.00 in0.0 mm 0.00 in/hr0.0 mm/hr 0.01 in0.3 mm
10:30 AM 57.8°F14.3°C 56.7°F13.7°C 96% Calm Calm 7.0 mph11.3 kmh 29.94 in1013.9 mb 0.00 in0.0 mm 0.00 in/hr0.0 mm/hr 0.01 in0.3 mm
10:35 AM 58.2°F14.6°C 57.1°F13.9°C 96% Calm Calm 7.0 mph11.3 kmh 29.94 in1013.9 mb 0.00 in0.0 mm 0.00 in/hr0.0 mm/hr 0.01 in0.3 mm
10:40 AM 58.7°F14.8°C 57.6°F14.2°C 96% Calm Calm 7.0 mph11.3 kmh 29.94 in1013.9 mb 0.00 in0.0 mm 0.00 in/hr0.0 mm/hr 0.01 in0.3 mm
10:45 AM 59.3°F15.2°C 58.2°F14.6°C 96% 5.0 mph SW8.0 kmh SW 7.0 mph11.3 kmh 29.94 in1013.9 mb 0.00 in0.0 mm 0.00 in/hr0.0 mm/hr 0.01 in0.3 mm
10:50 AM 60.3°F15.7°C 59.2°F15.1°C 96% Calm Calm 7.0 mph11.3 kmh 29.94 in1013.9 mb 0.00 in0.0 mm 0.00 in/hr0.0 mm/hr 0.01 in0.3 mm
10:55 AM 61.3°F16.3°C 59.9°F15.5°C 95% 4.0 mph SW6.4 kmh SW 7.0 mph11.3 kmh 29.94 in1013.9 mb 0.00 in0.0 mm 0.00 in/hr0.0 mm/hr 0.01 in0.3 mm
11:00 AM 62.0°F16.7°C 59.4°F15.2°C 91% Calm Calm 7.0 mph11.3 kmh 29.94 in1013.9 mb 0.00 in0.0 mm 0.00 in/hr0.0 mm/hr 0.01 in0.3 mm
11:05 AM 63.3°F17.4°C 59.7°F15.4°C 88% Calm Calm 7.0 mph11.3 kmh 29.94 in1013.9 mb 0.00 in0.0 mm 0.00 in/hr0.0 mm/hr 0.01 in0.3 mm
11:10 AM 64.8°F18.2°C 57.8°F14.3°C 78% Calm Calm 7.0 mph11.3 kmh 29.94 in1013.9 mb 0.00 in0.0 mm 0.00 in/hr0.0 mm/hr 0.01 in0.3 mm
11:15 AM 65.9°F18.8°C 59.6°F15.3°C 80% 3.0 mph SW4.8 kmh SW 7.0 mph11.3 kmh 29.94 in1013.9 mb 0.00 in0.0 mm 0.00 in/hr0.0 mm/hr 0.01 in0.3 mm
11:20 AM 66.1°F18.9°C 58.3°F14.6°C 76% 1.0 mph W1.6 kmh W 7.0 mph11.3 kmh 29.94 in1013.9 mb 0.00 in0.0 mm 0.00 in/hr0.0 mm/hr 0.01 in0.3 mm
11:25 AM 66.9°F19.4°C 59.1°F15.1°C 76% 4.0 mph WSW6.4 kmh WSW 7.0 mph11.3 kmh 29.94 in1013.9 mb 0.00 in0.0 mm 0.00 in/hr0.0 mm/hr 0.01 in0.3 mm
11:30 AM 67.4°F19.7°C 58.8°F14.9°C 74% Calm Calm 7.0 mph11.3 kmh 29.94 in1013.9 mb 0.00 in0.0 mm 0.00 in/hr0.0 mm/hr 0.01 in0.3 mm
11:35 AM 67.8°F19.9°C 58.1°F14.5°C 71% Calm Calm 7.0 mph11.3 kmh 29.94 in1013.9 mb 0.00 in0.0 mm 0.00 in/hr0.0 mm/hr 0.01 in0.3 mm
11:40 AM 68.5°F20.3°C 58.7°F14.8°C 71% 2.0 mph WSW3.2 kmh WSW 7.0 mph11.3 kmh 29.95 in1014.2 mb 0.00 in0.0 mm 0.00 in/hr0.0 mm/hr 0.01 in0.3 mm
11:45 AM 69.1°F20.6°C 58.1°F14.5°C 68% 4.0 mph WSW6.4 kmh WSW 7.0 mph11.3 kmh 29.95 in1014.2 mb 0.00 in0.0 mm 0.00 in/hr0.0 mm/hr 0.01 in0.3 mm
11:50 AM 69.4°F20.8°C 58.4°F14.7°C 68% Calm Calm 7.0 mph11.3 kmh 29.95 in1014.2 mb 0.00 in0.0 mm 0.00 in/hr0.0 mm/hr 0.01 in0.3 mm
11:55 AM 69.0°F20.6°C 57.2°F14.0°C 66% 4.0 mph NW6.4 kmh NW 7.0 mph11.3 kmh 29.95 in1014.2 mb 0.00 in0.0 mm 0.00 in/hr0.0 mm/hr 0.01 in0.3 mm
12:00 PM 68.9°F20.5°C 58.3°F14.6°C 69% 1.0 mph NW1.6 kmh NW 7.0 mph11.3 kmh 29.95 in1014.2 mb 0.00 in0.0 mm 0.00 in/hr0.0 mm/hr 0.01 in0.3 mm
12:05 PM 69.2°F20.7°C 58.2°F14.6°C 68% 1.0 mph NW1.6 kmh NW 7.0 mph11.3 kmh 29.95 in1014.2 mb 0.00 in0.0 mm 0.00 in/hr0.0 mm/hr 0.01 in0.3 mm
12:10 PM 70.0°F21.1°C 58.1°F14.5°C 66% Calm Calm 7.0 mph11.3 kmh 29.95 in1014.2 mb 0.00 in0.0 mm 0.00 in/hr0.0 mm/hr 0.01 in0.3 mm
12:15 PM 70.2°F21.2°C 58.3°F14.6°C 66% 6.0 mph WSW9.7 kmh WSW 7.0 mph11.3 kmh 29.95 in1014.2 mb 0.00 in0.0 mm 0.00 in/hr0.0 mm/hr 0.01 in0.3 mm
12:20 PM 70.2°F21.2°C 57.0°F13.9°C 63% 1.0 mph WSW1.6 kmh WSW 7.0 mph11.3 kmh 29.95 in1014.2 mb 0.00 in0.0 mm 0.00 in/hr0.0 mm/hr 0.01 in0.3 mm
12:25 PM 70.1°F21.2°C 57.4°F14.1°C 64% 2.0 mph NW3.2 kmh NW 7.0 mph11.3 kmh 29.95 in1014.2 mb 0.00 in0.0 mm 0.00 in/hr0.0 mm/hr 0.01 in0.3 mm
12:30 PM 69.5°F20.8°C 57.2°F14.0°C 65% Calm Calm 7.0 mph11.3 kmh 29.95 in1014.2 mb 0.00 in0.0 mm 0.00 in/hr0.0 mm/hr 0.01 in0.3 mm
12:35 PM 69.1°F20.6°C 58.9°F14.9°C 70% 3.0 mph NW4.8 kmh NW 7.0 mph11.3 kmh 29.95 in1014.2 mb 0.00 in0.0 mm 0.00 in/hr0.0 mm/hr 0.01 in0.3 mm
12:40 PM 68.5°F20.3°C 58.7°F14.8°C 71% 1.0 mph NW1.6 kmh NW 7.0 mph11.3 kmh 29.95 in1014.2 mb 0.00 in0.0 mm 0.00 in/hr0.0 mm/hr 0.01 in0.3 mm
12:45 PM 68.6°F20.3°C 58.0°F14.4°C 69% Calm Calm 7.0 mph11.3 kmh 29.95 in1014.2 mb 0.00 in0.0 mm 0.00 in/hr0.0 mm/hr 0.01 in0.3 mm
12:50 PM 68.9°F20.5°C 58.7°F14.8°C 70% Calm Calm 7.0 mph11.3 kmh 29.95 in1014.2 mb 0.00 in0.0 mm 0.00 in/hr0.0 mm/hr 0.01 in0.3 mm
12:55 PM 69.4°F20.8°C 58.0°F14.4°C 67% Calm Calm 7.0 mph11.3 kmh 29.95 in1014.2 mb 0.00 in0.0 mm 0.00 in/hr0.0 mm/hr 0.01 in0.3 mm
01:00 PM 70.0°F21.1°C 57.7°F14.3°C 65% Calm Calm 7.0 mph11.3 kmh 29.95 in1014.2 mb 0.00 in0.0 mm 0.00 in/hr0.0 mm/hr 0.01 in0.3 mm
01:05 PM 70.7°F21.5°C 57.9°F14.4°C 64% 1.0 mph WSW1.6 kmh WSW 7.0 mph11.3 kmh 29.95 in1014.2 mb 0.00 in0.0 mm 0.00 in/hr0.0 mm/hr 0.01 in0.3 mm
01:10 PM 70.7°F21.5°C 57.5°F14.2°C 63% 1.0 mph NW1.6 kmh NW 7.0 mph11.3 kmh 29.95 in1014.2 mb 0.00 in0.0 mm 0.00 in/hr0.0 mm/hr 0.01 in0.3 mm
01:15 PM 70.7°F21.5°C 57.1°F13.9°C 62% Calm Calm 7.0 mph11.3 kmh 29.95 in1014.2 mb 0.00 in0.0 mm 0.00 in/hr0.0 mm/hr 0.01 in0.3 mm
01:20 PM 71.1°F21.7°C 57.0°F13.9°C 61% 2.0 mph NW3.2 kmh NW 7.0 mph11.3 kmh 29.95 in1014.2 mb 0.00 in0.0 mm 0.00 in/hr0.0 mm/hr 0.01 in0.3 mm
01:25 PM 71.7°F22.1°C 57.1°F13.9°C 60% Calm Calm 7.0 mph11.3 kmh 29.95 in1014.2 mb 0.00 in0.0 mm 0.00 in/hr0.0 mm/hr 0.01 in0.3 mm
01:30 PM 72.0°F22.2°C 56.9°F13.8°C 59% Calm Calm 7.0 mph11.3 kmh 29.95 in1014.2 mb 0.00 in0.0 mm 0.00 in/hr0.0 mm/hr 0.01 in0.3 mm
01:35 PM 73.6°F23.1°C 57.9°F14.4°C 58% Calm Calm 7.0 mph11.3 kmh 29.94 in1013.9 mb 0.00 in0.0 mm 0.00 in/hr0.0 mm/hr 0.01 in0.3 mm
01:40 PM 74.3°F23.5°C 58.1°F14.5°C 57% 5.0 mph NW8.0 kmh NW 7.0 mph11.3 kmh 29.94 in1013.9 mb 0.00 in0.0 mm 0.00 in/hr0.0 mm/hr 0.01 in0.3 mm
01:45 PM 73.9°F23.3°C 56.2°F13.4°C 54% 1.0 mph SW1.6 kmh SW 7.0 mph11.3 kmh 29.94 in1013.9 mb 0.00 in0.0 mm 0.00 in/hr0.0 mm/hr 0.01 in0.3 mm
01:50 PM 74.4°F23.6°C 57.2°F14.0°C 55% 1.0 mph NW1.6 kmh NW 7.0 mph11.3 kmh 29.94 in1013.9 mb 0.00 in0.0 mm 0.00 in/hr0.0 mm/hr 0.01 in0.3 mm
01:55 PM 74.7°F23.7°C 57.0°F13.9°C 54% 2.0 mph SW3.2 kmh SW 7.0 mph11.3 kmh 29.94 in1013.9 mb 0.00 in0.0 mm 0.00 in/hr0.0 mm/hr 0.01 in0.3 mm
02:00 PM 75.3°F24.1°C 57.0°F13.9°C 53% 3.0 mph SW4.8 kmh SW 7.0 mph11.3 kmh 29.94 in1013.9 mb 0.00 in0.0 mm 0.00 in/hr0.0 mm/hr 0.01 in0.3 mm
02:05 PM 75.9°F24.4°C 57.6°F14.2°C 53% 2.0 mph SW3.2 kmh SW 7.0 mph11.3 kmh 29.94 in1013.9 mb 0.00 in0.0 mm 0.00 in/hr0.0 mm/hr 0.01 in0.3 mm
02:10 PM 76.4°F24.7°C 58.0°F14.4°C 53% Calm Calm 7.0 mph11.3 kmh 29.93 in1013.5 mb 0.00 in0.0 mm 0.00 in/hr0.0 mm/hr 0.01 in0.3 mm
02:15 PM 76.2°F24.6°C 57.3°F14.1°C 52% 2.0 mph NW3.2 kmh NW 7.0 mph11.3 kmh 29.93 in1013.5 mb 0.00 in0.0 mm 0.00 in/hr0.0 mm/hr 0.01 in0.3 mm
02:20 PM 75.3°F24.1°C 56.5°F13.6°C 52% 2.0 mph WSW3.2 kmh WSW 7.0 mph11.3 kmh 29.93 in1013.5 mb 0.00 in0.0 mm 0.00 in/hr0.0 mm/hr 0.01 in0.3 mm
02:25 PM 75.2°F24.0°C 55.9°F13.3°C 51% 4.0 mph WNW6.4 kmh WNW 7.0 mph11.3 kmh 29.93 in1013.5 mb 0.00 in0.0 mm 0.00 in/hr0.0 mm/hr 0.01 in0.3 mm
02:30 PM 76.2°F24.6°C 55.1°F12.8°C 48% 1.0 mph SW1.6 kmh SW 7.0 mph11.3 kmh 29.93 in1013.5 mb 0.00 in0.0 mm 0.00 in/hr0.0 mm/hr 0.01 in0.3 mm
02:35 PM 76.0°F24.4°C 54.9°F12.7°C 48% 3.0 mph W4.8 kmh W 7.0 mph11.3 kmh 29.93 in1013.5 mb 0.00 in0.0 mm 0.00 in/hr0.0 mm/hr 0.01 in0.3 mm
02:40 PM 76.8°F24.9°C 55.1°F12.8°C 47% 4.0 mph WSW6.4 kmh WSW 7.0 mph11.3 kmh 29.93 in1013.5 mb 0.00 in0.0 mm 0.00 in/hr0.0 mm/hr 0.01 in0.3 mm
02:45 PM 77.3°F25.2°C 53.1°F11.7°C 43% 6.0 mph SW9.7 kmh SW 7.0 mph11.3 kmh 29.93 in1013.5 mb 0.00 in0.0 mm 0.00 in/hr0.0 mm/hr 0.01 in0.3 mm
02:50 PM 77.5°F25.3°C 53.9°F12.2°C 44% 2.0 mph SW3.2 kmh SW 7.0 mph11.3 kmh 29.93 in1013.5 mb 0.00 in0.0 mm 0.00 in/hr0.0 mm/hr 0.01 in0.3 mm
02:55 PM 77.7°F25.4°C 54.7°F12.6°C 45% Calm Calm 7.0 mph11.3 kmh 29.93 in1013.5 mb 0.00 in0.0 mm 0.00 in/hr0.0 mm/hr 0.01 in0.3 mm
03:00 PM 77.6°F25.3°C 54.6°F12.6°C 45% 2.0 mph W3.2 kmh W 7.0 mph11.3 kmh 29.93 in1013.5 mb 0.00 in0.0 mm 0.00 in/hr0.0 mm/hr 0.01 in0.3 mm
03:05 PM 77.6°F25.3°C 54.6°F12.6°C 45% Calm Calm 7.0 mph11.3 kmh 29.93 in1013.5 mb 0.00 in0.0 mm 0.00 in/hr0.0 mm/hr 0.01 in0.3 mm
03:10 PM 77.6°F25.3°C 54.0°F12.2°C 44% Calm Calm 7.0 mph11.3 kmh 29.93 in1013.5 mb 0.00 in0.0 mm 0.00 in/hr0.0 mm/hr 0.01 in0.3 mm
03:15 PM 77.4°F25.2°C 55.0°F12.8°C 46% Calm Calm 7.0 mph11.3 kmh 29.93 in1013.5 mb 0.00 in0.0 mm 0.00 in/hr0.0 mm/hr 0.01 in0.3 mm
03:20 PM 77.8°F25.4°C 53.5°F11.9°C 43% Calm Calm 7.0 mph11.3 kmh 29.92 in1013.2 mb 0.00 in0.0 mm 0.00 in/hr0.0 mm/hr 0.01 in0.3 mm
03:25 PM 77.2°F25.1°C 54.2°F12.3°C 45% 1.0 mph NW1.6 kmh NW 7.0 mph11.3 kmh 29.92 in1013.2 mb 0.00 in0.0 mm 0.00 in/hr0.0 mm/hr 0.01 in0.3 mm
03:30 PM 77.3°F25.2°C 54.3°F12.4°C 45% 1.0 mph SW1.6 kmh SW 7.0 mph11.3 kmh 29.93 in1013.5 mb 0.00 in0.0 mm 0.00 in/hr0.0 mm/hr 0.01 in0.3 mm
03:35 PM 77.4°F25.2°C 53.8°F12.1°C 44% 2.0 mph SW3.2 kmh SW 7.0 mph11.3 kmh 29.93 in1013.5 mb 0.00 in0.0 mm 0.00 in/hr0.0 mm/hr 0.01 in0.3 mm
03:40 PM 76.8°F24.9°C 53.3°F11.8°C 44% 2.0 mph S3.2 kmh S 7.0 mph11.3 kmh 29.92 in1013.2 mb 0.00 in0.0 mm 0.00 in/hr0.0 mm/hr 0.01 in0.3 mm
03:45 PM 77.0°F25.0°C 54.1°F12.3°C 45% 5.0 mph WSW8.0 kmh WSW 7.0 mph11.3 kmh 29.92 in1013.2 mb 0.00 in0.0 mm 0.00 in/hr0.0 mm/hr 0.01 in0.3 mm
03:50 PM 77.7°F25.4°C 53.5°F11.9°C 43% 1.0 mph SSW1.6 kmh SSW 7.0 mph11.3 kmh 29.92 in1013.2 mb 0.00 in0.0 mm 0.00 in/hr0.0 mm/hr 0.01 in0.3 mm
03:55 PM 78.0°F25.6°C 54.4°F12.4°C 44% 3.0 mph SW4.8 kmh SW 7.0 mph11.3 kmh 29.92 in1013.2 mb 0.00 in0.0 mm 0.00 in/hr0.0 mm/hr 0.01 in0.3 mm
04:00 PM 78.1°F25.6°C 55.7°F13.2°C 46% 4.0 mph SSW6.4 kmh SSW 7.0 mph11.3 kmh 29.92 in1013.2 mb 0.00 in0.0 mm 0.00 in/hr0.0 mm/hr 0.01 in0.3 mm
04:05 PM 78.3°F25.7°C 55.2°F12.9°C 45% Calm Calm 7.0 mph11.3 kmh 29.92 in1013.2 mb 0.00 in0.0 mm 0.00 in/hr0.0 mm/hr 0.01 in0.3 mm
04:10 PM 78.1°F25.6°C 55.1°F12.8°C 45% Calm Calm 7.0 mph11.3 kmh 29.92 in1013.2 mb 0.00 in0.0 mm 0.00 in/hr0.0 mm/hr 0.01 in0.3 mm
04:15 PM 78.2°F25.7°C 56.3°F13.5°C 47% Calm Calm 7.0 mph11.3 kmh 29.92 in1013.2 mb 0.00 in0.0 mm 0.00 in/hr0.0 mm/hr 0.01 in0.3 mm
04:20 PM 78.1°F25.6°C 55.7°F13.2°C 46% Calm Calm 7.0 mph11.3 kmh 29.91 in1012.9 mb 0.00 in0.0 mm 0.00 in/hr0.0 mm/hr 0.01 in0.3 mm
04:25 PM 77.3°F25.2°C 54.3°F12.4°C 45% Calm Calm 7.0 mph11.3 kmh 29.91 in1012.9 mb 0.00 in0.0 mm 0.00 in/hr0.0 mm/hr 0.01 in0.3 mm
04:30 PM 77.8°F25.4°C 55.4°F13.0°C 46% Calm Calm 7.0 mph11.3 kmh 29.91 in1012.9 mb 0.00 in0.0 mm 0.00 in/hr0.0 mm/hr 0.01 in0.3 mm
04:35 PM 77.7°F25.4°C 54.7°F12.6°C 45% Calm Calm 7.0 mph11.3 kmh 29.91 in1012.9 mb 0.00 in0.0 mm 0.00 in/hr0.0 mm/hr 0.01 in0.3 mm
04:40 PM 77.7°F25.4°C 55.9°F13.3°C 47% Calm Calm 7.0 mph11.3 kmh 29.91 in1012.9 mb 0.00 in0.0 mm 0.00 in/hr0.0 mm/hr 0.01 in0.3 mm
04:45 PM 77.5°F25.3°C 54.5°F12.5°C 45% 1.0 mph W1.6 kmh W 7.0 mph11.3 kmh 29.91 in1012.9 mb 0.00 in0.0 mm 0.00 in/hr0.0 mm/hr 0.01 in0.3 mm
04:50 PM 77.2°F25.1°C 54.8°F12.7°C 46% Calm Calm 7.0 mph11.3 kmh 29.91 in1012.9 mb 0.00 in0.0 mm 0.00 in/hr0.0 mm/hr 0.01 in0.3 mm
04:55 PM 77.1°F25.1°C 54.2°F12.3°C 45% Calm Calm 7.0 mph11.3 kmh 29.91 in1012.9 mb 0.00 in0.0 mm 0.00 in/hr0.0 mm/hr 0.01 in0.3 mm
05:00 PM 77.5°F25.3°C 54.5°F12.5°C 45% 2.0 mph S3.2 kmh S 7.0 mph11.3 kmh 29.91 in1012.9 mb 0.00 in0.0 mm 0.00 in/hr0.0 mm/hr 0.01 in0.3 mm
05:05 PM 78.1°F25.6°C 55.1°F12.8°C 45% 3.0 mph SSE4.8 kmh SSE 7.0 mph11.3 kmh 29.91 in1012.9 mb 0.00 in0.0 mm 0.00 in/hr0.0 mm/hr 0.01 in0.3 mm
05:10 PM 78.5°F25.8°C 55.4°F13.0°C 45% 2.0 mph SW3.2 kmh SW 7.0 mph11.3 kmh 29.91 in1012.9 mb 0.00 in0.0 mm 0.00 in/hr0.0 mm/hr 0.01 in0.3 mm
05:15 PM 78.6°F25.9°C 54.9°F12.7°C 44% 4.0 mph SW6.4 kmh SW 7.0 mph11.3 kmh 29.91 in1012.9 mb 0.00 in0.0 mm 0.00 in/hr0.0 mm/hr 0.01 in0.3 mm
05:20 PM 78.9°F26.1°C 56.4°F13.6°C 46% Calm Calm 7.0 mph11.3 kmh 29.91 in1012.9 mb 0.00 in0.0 mm 0.00 in/hr0.0 mm/hr 0.01 in0.3 mm
05:25 PM 79.2°F26.2°C 54.2°F12.3°C 42% Calm Calm 7.0 mph11.3 kmh 29.91 in1012.9 mb 0.00 in0.0 mm 0.00 in/hr0.0 mm/hr 0.01 in0.3 mm
05:30 PM 79.4°F26.3°C 53.7°F12.1°C 41% 2.0 mph SW3.2 kmh SW 7.0 mph11.3 kmh 29.91 in1012.9 mb 0.00 in0.0 mm 0.00 in/hr0.0 mm/hr 0.01 in0.3 mm
05:35 PM 79.2°F26.2°C 54.8°F12.7°C 43% Calm Calm 7.0 mph11.3 kmh 29.91 in1012.9 mb 0.00 in0.0 mm 0.00 in/hr0.0 mm/hr 0.01 in0.3 mm
05:40 PM 79.4°F26.3°C 55.0°F12.8°C 43% Calm Calm 7.0 mph11.3 kmh 29.90 in1012.5 mb 0.00 in0.0 mm 0.00 in/hr0.0 mm/hr 0.01 in0.3 mm
05:45 PM 79.3°F26.3°C 53.6°F12.0°C 41% Calm Calm 7.0 mph11.3 kmh 29.90 in1012.5 mb 0.00 in0.0 mm 0.00 in/hr0.0 mm/hr 0.01 in0.3 mm
05:50 PM 79.3°F26.3°C 53.6°F12.0°C 41% Calm Calm 7.0 mph11.3 kmh 29.90 in1012.5 mb 0.00 in0.0 mm 0.00 in/hr0.0 mm/hr 0.01 in0.3 mm
05:55 PM 79.1°F26.2°C 54.7°F12.6°C 43% 2.0 mph W3.2 kmh W 7.0 mph11.3 kmh 29.90 in1012.5 mb 0.00 in0.0 mm 0.00 in/hr0.0 mm/hr 0.01 in0.3 mm
06:00 PM 78.7°F25.9°C 54.4°F12.4°C 43% 1.0 mph NW1.6 kmh NW 7.0 mph11.3 kmh 29.90 in1012.5 mb 0.00 in0.0 mm 0.00 in/hr0.0 mm/hr 0.01 in0.3 mm
06:05 PM 78.2°F25.7°C 55.1°F12.8°C 45% Calm Calm 7.0 mph11.3 kmh 29.91 in1012.9 mb 0.00 in0.0 mm 0.00 in/hr0.0 mm/hr 0.01 in0.3 mm
06:10 PM 77.5°F25.3°C 55.1°F12.8°C 46% 2.0 mph NW3.2 kmh NW 7.0 mph11.3 kmh 29.90 in1012.5 mb 0.00 in0.0 mm 0.00 in/hr0.0 mm/hr 0.01 in0.3 mm
06:15 PM 76.9°F24.9°C 54.6°F12.6°C 46% Calm Calm 7.0 mph11.3 kmh 29.91 in1012.9 mb 0.00 in0.0 mm 0.00 in/hr0.0 mm/hr 0.01 in0.3 mm
06:20 PM 76.3°F24.6°C 55.2°F12.9°C 48% Calm Calm 7.0 mph11.3 kmh 29.91 in1012.9 mb 0.00 in0.0 mm 0.00 in/hr0.0 mm/hr 0.01 in0.3 mm
06:25 PM 76.0°F24.4°C 55.5°F13.1°C 49% Calm Calm 7.0 mph11.3 kmh 29.90 in1012.5 mb 0.00 in0.0 mm 0.00 in/hr0.0 mm/hr 0.01 in0.3 mm
06:30 PM 75.6°F24.2°C 55.1°F12.8°C 49% Calm Calm 7.0 mph11.3 kmh 29.90 in1012.5 mb 0.00 in0.0 mm 0.00 in/hr0.0 mm/hr 0.01 in0.3 mm
06:35 PM 75.1°F23.9°C 54.1°F12.3°C 48% Calm Calm 7.0 mph11.3 kmh 29.90 in1012.5 mb 0.00 in0.0 mm 0.00 in/hr0.0 mm/hr 0.01 in0.3 mm
06:40 PM 74.6°F23.7°C 54.2°F12.3°C 49% 1.0 mph NW1.6 kmh NW 7.0 mph11.3 kmh 29.90 in1012.5 mb 0.00 in0.0 mm 0.00 in/hr0.0 mm/hr 0.01 in0.3 mm
06:45 PM 74.4°F23.6°C 54.0°F12.2°C 49% Calm Calm 7.0 mph11.3 kmh 29.91 in1012.9 mb 0.00 in0.0 mm 0.00 in/hr0.0 mm/hr 0.01 in0.3 mm
06:50 PM 74.2°F23.4°C 53.8°F12.1°C 49% Calm Calm 7.0 mph11.3 kmh 29.91 in1012.9 mb 0.00 in0.0 mm 0.00 in/hr0.0 mm/hr 0.01 in0.3 mm
06:55 PM 74.0°F23.3°C 54.2°F12.3°C 50% Calm Calm 7.0 mph11.3 kmh 29.91 in1012.9 mb 0.00 in0.0 mm 0.00 in/hr0.0 mm/hr 0.01 in0.3 mm
07:00 PM 73.9°F23.3°C 54.7°F12.6°C 51% Calm Calm 7.0 mph11.3 kmh 29.91 in1012.9 mb 0.00 in0.0 mm 0.00 in/hr0.0 mm/hr 0.01 in0.3 mm
07:05 PM 73.7°F23.2°C 54.5°F12.5°C 51% Calm Calm 7.0 mph11.3 kmh 29.91 in1012.9 mb 0.00 in0.0 mm 0.00 in/hr0.0 mm/hr 0.01 in0.3 mm
07:10 PM 73.6°F23.1°C 54.9°F12.7°C 52% Calm Calm 7.0 mph11.3 kmh 29.92 in1013.2 mb 0.00 in0.0 mm 0.00 in/hr0.0 mm/hr 0.01 in0.3 mm
07:15 PM 73.4°F23.0°C 55.3°F12.9°C 53% Calm Calm 7.0 mph11.3 kmh 29.92 in1013.2 mb 0.00 in0.0 mm 0.00 in/hr0.0 mm/hr 0.01 in0.3 mm
07:20 PM 73.2°F22.9°C 55.1°F12.8°C 53% Calm Calm 7.0 mph11.3 kmh 29.92 in1013.2 mb 0.00 in0.0 mm 0.00 in/hr0.0 mm/hr 0.01 in0.3 mm
07:25 PM 73.1°F22.8°C 55.0°F12.8°C 53% Calm Calm 7.0 mph11.3 kmh 29.92 in1013.2 mb 0.00 in0.0 mm 0.00 in/hr0.0 mm/hr 0.01 in0.3 mm
07:30 PM 73.0°F22.8°C 54.9°F12.7°C 53% 2.0 mph NW3.2 kmh NW 7.0 mph11.3 kmh 29.92 in1013.2 mb 0.00 in0.0 mm 0.00 in/hr0.0 mm/hr 0.01 in0.3 mm
07:35 PM 72.9°F22.7°C 54.8°F12.7°C 53% 1.0 mph NW1.6 kmh NW 7.0 mph11.3 kmh 29.92 in1013.2 mb 0.00 in0.0 mm 0.00 in/hr0.0 mm/hr 0.01 in0.3 mm
07:40 PM 72.8°F22.7°C 54.7°F12.6°C 53% Calm Calm 7.0 mph11.3 kmh 29.92 in1013.2 mb 0.00 in0.0 mm 0.00 in/hr0.0 mm/hr 0.01 in0.3 mm
07:45 PM 72.7°F22.6°C 55.1°F12.8°C 54% Calm Calm 7.0 mph11.3 kmh 29.92 in1013.2 mb 0.00 in0.0 mm 0.00 in/hr0.0 mm/hr 0.01 in0.3 mm
07:50 PM 72.6°F22.6°C 55.0°F12.8°C 54% Calm Calm 7.0 mph11.3 kmh 29.92 in1013.2 mb 0.00 in0.0 mm 0.00 in/hr0.0 mm/hr 0.01 in0.3 mm
07:55 PM 72.6°F22.6°C 55.0°F12.8°C 54% 1.0 mph NW1.6 kmh NW 7.0 mph11.3 kmh 29.92 in1013.2 mb 0.00 in0.0 mm 0.00 in/hr0.0 mm/hr 0.01 in0.3 mm
08:00 PM 72.5°F22.5°C 55.4°F13.0°C 55% Calm Calm 7.0 mph11.3 kmh 29.93 in1013.5 mb 0.00 in0.0 mm 0.00 in/hr0.0 mm/hr 0.01 in0.3 mm
08:05 PM 72.4°F22.4°C 55.8°F13.2°C 56% Calm Calm 7.0 mph11.3 kmh 29.93 in1013.5 mb 0.00 in0.0 mm 0.00 in/hr0.0 mm/hr 0.01 in0.3 mm
08:10 PM 72.2°F22.3°C 55.7°F13.2°C 56% Calm Calm 7.0 mph11.3 kmh 29.93 in1013.5 mb 0.00 in0.0 mm 0.00 in/hr0.0 mm/hr 0.01 in0.3 mm
08:15 PM 72.1°F22.3°C 55.1°F12.8°C 55% Calm Calm 7.0 mph11.3 kmh 29.93 in1013.5 mb 0.00 in0.0 mm 0.00 in/hr0.0 mm/hr 0.01 in0.3 mm
08:20 PM 72.0°F22.2°C 55.5°F13.1°C 56% Calm Calm 7.0 mph11.3 kmh 29.93 in1013.5 mb 0.00 in0.0 mm 0.00 in/hr0.0 mm/hr 0.01 in0.3 mm
08:25 PM 71.9°F22.2°C 55.4°F13.0°C 56% 1.0 mph NW1.6 kmh NW 7.0 mph11.3 kmh 29.93 in1013.5 mb 0.00 in0.0 mm 0.00 in/hr0.0 mm/hr 0.01 in0.3 mm
08:30 PM 71.7°F22.1°C 55.2°F12.9°C 56% Calm Calm 7.0 mph11.3 kmh 29.93 in1013.5 mb 0.00 in0.0 mm 0.00 in/hr0.0 mm/hr 0.01 in0.3 mm
08:35 PM 71.6°F22.0°C 55.1°F12.8°C 56% Calm Calm 7.0 mph11.3 kmh 29.94 in1013.9 mb 0.00 in0.0 mm 0.00 in/hr0.0 mm/hr 0.01 in0.3 mm
08:40 PM 71.5°F21.9°C 55.5°F13.1°C 57% Calm Calm 7.0 mph11.3 kmh 29.94 in1013.9 mb 0.00 in0.0 mm 0.00 in/hr0.0 mm/hr 0.01 in0.3 mm
08:45 PM 71.3°F21.8°C 55.3°F12.9°C 57% Calm Calm 7.0 mph11.3 kmh 29.94 in1013.9 mb 0.00 in0.0 mm 0.00 in/hr0.0 mm/hr 0.01 in0.3 mm
08:50 PM 71.1°F21.7°C 55.6°F13.1°C 58% Calm Calm 7.0 mph11.3 kmh 29.94 in1013.9 mb 0.00 in0.0 mm 0.00 in/hr0.0 mm/hr 0.01 in0.3 mm
08:55 PM 70.9°F21.6°C 55.9°F13.3°C 59% Calm Calm 7.0 mph11.3 kmh 29.94 in1013.9 mb 0.00 in0.0 mm 0.00 in/hr0.0 mm/hr 0.01 in0.3 mm
09:00 PM 70.4°F21.3°C 56.3°F13.5°C 61% 2.0 mph NW3.2 kmh NW 7.0 mph11.3 kmh 29.95 in1014.2 mb 0.00 in0.0 mm 0.00 in/hr0.0 mm/hr 0.01 in0.3 mm
09:05 PM 69.9°F21.1°C 57.2°F14.0°C 64% Calm Calm 7.0 mph11.3 kmh 29.95 in1014.2 mb 0.00 in0.0 mm 0.00 in/hr0.0 mm/hr 0.01 in0.3 mm
09:10 PM 69.6°F20.9°C 57.3°F14.1°C 65% 3.0 mph NW4.8 kmh NW 7.0 mph11.3 kmh 29.95 in1014.2 mb 0.00 in0.0 mm 0.00 in/hr0.0 mm/hr 0.01 in0.3 mm
09:15 PM 69.2°F20.7°C 57.4°F14.1°C 66% 1.0 mph NW1.6 kmh NW 7.0 mph11.3 kmh 29.95 in1014.2 mb 0.00 in0.0 mm 0.00 in/hr0.0 mm/hr 0.01 in0.3 mm
09:20 PM 68.8°F20.4°C 57.4°F14.1°C 67% 1.0 mph NW1.6 kmh NW 7.0 mph11.3 kmh 29.96 in1014.6 mb 0.00 in0.0 mm 0.00 in/hr0.0 mm/hr 0.01 in0.3 mm
09:25 PM 68.4°F20.2°C 57.4°F14.1°C 68% 1.0 mph NW1.6 kmh NW 7.0 mph11.3 kmh 29.96 in1014.6 mb 0.00 in0.0 mm 0.00 in/hr0.0 mm/hr 0.01 in0.3 mm
09:30 PM 67.9°F19.9°C 57.4°F14.1°C 69% 2.0 mph NW3.2 kmh NW 7.0 mph11.3 kmh 29.96 in1014.6 mb 0.00 in0.0 mm 0.00 in/hr0.0 mm/hr 0.01 in0.3 mm
09:35 PM 67.7°F19.8°C 57.6°F14.2°C 70% 1.0 mph NW1.6 kmh NW 7.0 mph11.3 kmh 29.96 in1014.6 mb 0.00 in0.0 mm 0.00 in/hr0.0 mm/hr 0.01 in0.3 mm
09:40 PM 67.5°F19.7°C 57.4°F14.1°C 70% Calm Calm 7.0 mph11.3 kmh 29.96 in1014.6 mb 0.00 in0.0 mm 0.00 in/hr0.0 mm/hr 0.01 in0.3 mm
09:45 PM 67.4°F19.7°C 57.7°F14.3°C 71% Calm Calm 7.0 mph11.3 kmh 29.97 in1014.9 mb 0.00 in0.0 mm 0.00 in/hr0.0 mm/hr 0.01 in0.3 mm
09:50 PM 67.2°F19.6°C 57.9°F14.4°C 72% Calm Calm 7.0 mph11.3 kmh 29.97 in1014.9 mb 0.00 in0.0 mm 0.00 in/hr0.0 mm/hr 0.01 in0.3 mm
09:55 PM 67.1°F19.5°C 57.8°F14.3°C 72% Calm Calm 7.0 mph11.3 kmh 29.97 in1014.9 mb 0.00 in0.0 mm 0.00 in/hr0.0 mm/hr 0.01 in0.3 mm
10:00 PM 67.0°F19.4°C 58.1°F14.5°C 73% Calm Calm 7.0 mph11.3 kmh 29.97 in1014.9 mb 0.00 in0.0 mm 0.00 in/hr0.0 mm/hr 0.01 in0.3 mm
10:05 PM 66.9°F19.4°C 58.0°F14.4°C 73% 2.0 mph NW3.2 kmh NW 7.0 mph11.3 kmh 29.98 in1015.2 mb 0.00 in0.0 mm 0.00 in/hr0.0 mm/hr 0.01 in0.3 mm
10:10 PM 66.7°F19.3°C 58.2°F14.6°C 74% Calm Calm 7.0 mph11.3 kmh 29.98 in1015.2 mb 0.00 in0.0 mm 0.00 in/hr0.0 mm/hr 0.01 in0.3 mm
10:15 PM 66.6°F19.2°C 58.1°F14.5°C 74% Calm Calm 7.0 mph11.3 kmh 29.98 in1015.2 mb 0.00 in0.0 mm 0.00 in/hr0.0 mm/hr 0.01 in0.3 mm
10:20 PM 66.5°F19.2°C 58.3°F14.6°C 75% Calm Calm 7.0 mph11.3 kmh 29.98 in1015.2 mb 0.00 in0.0 mm 0.00 in/hr0.0 mm/hr 0.01 in0.3 mm
10:25 PM 66.3°F19.1°C 58.5°F14.7°C 76% 5.0 mph NW8.0 kmh NW 7.0 mph11.3 kmh 29.99 in1015.6 mb 0.00 in0.0 mm 0.00 in/hr0.0 mm/hr 0.01 in0.3 mm
10:30 PM 66.2°F19.0°C 58.8°F14.9°C 77% 2.0 mph NW3.2 kmh NW 7.0 mph11.3 kmh 30.00 in1015.9 mb 0.00 in0.0 mm 0.00 in/hr0.0 mm/hr 0.01 in0.3 mm
10:35 PM 66.1°F18.9°C 58.7°F14.8°C 77% 2.0 mph NW3.2 kmh NW 7.0 mph11.3 kmh 30.00 in1015.9 mb 0.00 in0.0 mm 0.00 in/hr0.0 mm/hr 0.01 in0.3 mm
10:40 PM 66.0°F18.9°C 58.6°F14.8°C 77% Calm Calm 7.0 mph11.3 kmh 30.00 in1015.9 mb 0.00 in0.0 mm 0.00 in/hr0.0 mm/hr 0.01 in0.3 mm
10:45 PM 65.9°F18.8°C 58.9°F14.9°C 78% Calm Calm 7.0 mph11.3 kmh 30.01 in1016.3 mb 0.00 in0.0 mm 0.00 in/hr0.0 mm/hr 0.01 in0.3 mm
10:50 PM 65.9°F18.8°C 58.5°F14.7°C 77% 1.0 mph NW1.6 kmh NW 7.0 mph11.3 kmh 30.01 in1016.3 mb 0.00 in0.0 mm 0.00 in/hr0.0 mm/hr 0.01 in0.3 mm
10:55 PM 65.9°F18.8°C 58.1°F14.5°C 76% 1.0 mph NW1.6 kmh NW 7.0 mph11.3 kmh 30.02 in1016.6 mb 0.00 in0.0 mm 0.00 in/hr0.0 mm/hr 0.01 in0.3 mm
11:00 PM 65.9°F18.8°C 57.8°F14.3°C 75% Calm Calm 7.0 mph11.3 kmh 30.02 in1016.6 mb 0.00 in0.0 mm 0.00 in/hr0.0 mm/hr 0.01 in0.3 mm
11:05 PM 66.0°F18.9°C 57.9°F14.4°C 75% Calm Calm 7.0 mph11.3 kmh 30.03 in1016.9 mb 0.00 in0.0 mm 0.00 in/hr0.0 mm/hr 0.01 in0.3 mm
11:10 PM 66.1°F18.9°C 58.0°F14.4°C 75% Calm Calm 7.0 mph11.3 kmh 30.03 in1016.9 mb 0.00 in0.0 mm 0.00 in/hr0.0 mm/hr 0.01 in0.3 mm
11:15 PM 66.1°F18.9°C 58.0°F14.4°C 75% Calm Calm 7.0 mph11.3 kmh 30.03 in1016.9 mb 0.00 in0.0 mm 0.00 in/hr0.0 mm/hr 0.01 in0.3 mm
11:20 PM 66.1°F18.9°C 58.3°F14.6°C 76% Calm Calm 7.0 mph11.3 kmh 30.03 in1016.9 mb 0.00 in0.0 mm 0.00 in/hr0.0 mm/hr 0.01 in0.3 mm
11:25 PM 66.0°F18.9°C 58.2°F14.6°C 76% Calm Calm 7.0 mph11.3 kmh 30.03 in1016.9 mb 0.00 in0.0 mm 0.00 in/hr0.0 mm/hr 0.01 in0.3 mm
11:30 PM 65.8°F18.8°C 57.7°F14.3°C 75% 1.0 mph NNE1.6 kmh NNE 7.0 mph11.3 kmh 30.03 in1016.9 mb 0.00 in0.0 mm 0.00 in/hr0.0 mm/hr 0.01 in0.3 mm
11:35 PM 65.6°F18.7°C 57.5°F14.2°C 75% 3.0 mph NE4.8 kmh NE 7.0 mph11.3 kmh 30.03 in1016.9 mb 0.00 in0.0 mm 0.00 in/hr0.0 mm/hr 0.01 in0.3 mm
11:40 PM 65.4°F18.6°C 57.3°F14.1°C 75% 1.0 mph NE1.6 kmh NE 7.0 mph11.3 kmh 30.04 in1017.3 mb 0.00 in0.0 mm 0.00 in/hr0.0 mm/hr 0.01 in0.3 mm
11:45 PM 65.2°F18.4°C 57.1°F13.9°C 75% Calm Calm 7.0 mph11.3 kmh 30.04 in1017.3 mb 0.00 in0.0 mm 0.00 in/hr0.0 mm/hr 0.01 in0.3 mm
11:50 PM 65.0°F18.3°C 56.9°F13.8°C 75% 1.0 mph NE1.6 kmh NE 7.0 mph11.3 kmh 30.04 in1017.3 mb 0.00 in0.0 mm 0.00 in/hr0.0 mm/hr 0.01 in0.3 mm
11:55 PM 64.9°F18.3°C 56.8°F13.8°C 75% Calm Calm 7.0 mph11.3 kmh 30.05 in1017.6 mb 0.00 in0.0 mm 0.00 in/hr0.0 mm/hr 0.01 in0.3 mm